sensor_id;sensor_type;location;lat;lon;timestamp;temperature;humidity
38456;DHT22;24237;50.106;20.014;2023-11-19T00:00:33;5.30;1.00
38456;DHT22;24237;50.106;20.014;2023-11-19T00:02:59;5.30;99.90
38456;DHT22;24237;50.106;20.014;2023-11-19T00:05:24;5.20;99.90
38456;DHT22;24237;50.106;20.014;2023-11-19T00:07:50;5.10;99.90
38456;DHT22;24237;50.106;20.014;2023-11-19T00:10:17;5.00;1.00
38456;DHT22;24237;50.106;20.014;2023-11-19T00:12:47;5.20;1.00
38456;DHT22;24237;50.106;20.014;2023-11-19T00:15:14;5.30;1.00
38456;DHT22;24237;50.106;20.014;2023-11-19T00:17:44;5.10;1.00
38456;DHT22;24237;50.106;20.014;2023-11-19T00:20:19;5.00;1.00
38456;DHT22;24237;50.106;20.014;2023-11-19T00:22:47;5.00;1.00
38456;DHT22;24237;50.106;20.014;2023-11-19T00:25:17;5.20;1.00
38456;DHT22;24237;50.106;20.014;2023-11-19T00:27:43;5.50;1.00
38456;DHT22;24237;50.106;20.014;2023-11-19T00:30:10;5.70;1.00
38456;DHT22;24237;50.106;20.014;2023-11-19T00:32:36;5.50;99.90
38456;DHT22;24237;50.106;20.014;2023-11-19T00:35:04;5.40;99.90
38456;DHT22;24237;50.106;20.014;2023-11-19T00:37:30;5.40;99.90
38456;DHT22;24237;50.106;20.014;2023-11-19T00:39:55;5.30;1.00
38456;DHT22;24237;50.106;20.014;2023-11-19T00:42:24;5.40;1.00
38456;DHT22;24237;50.106;20.014;2023-11-19T00:44:53;5.30;99.90
38456;DHT22;24237;50.106;20.014;2023-11-19T00:47:19;5.50;99.90
38456;DHT22;24237;50.106;20.014;2023-11-19T00:49:47;5.40;99.90
38456;DHT22;24237;50.106;20.014;2023-11-19T00:52:17;5.50;99.90
38456;DHT22;24237;50.106;20.014;2023-11-19T00:54:43;5.50;99.90
38456;DHT22;24237;50.106;20.014;2023-11-19T00:57:09;5.50;1.00
38456;DHT22;24237;50.106;20.014;2023-11-19T00:59:34;5.60;99.90
38456;DHT22;24237;50.106;20.014;2023-11-19T01:02:00;5.60;99.90
38456;DHT22;24237;50.106;20.014;2023-11-19T01:04:33;5.70;99.90
38456;DHT22;24237;50.106;20.014;2023-11-19T01:07:01;5.70;99.90
38456;DHT22;24237;50.106;20.014;2023-11-19T01:09:29;5.40;99.90
38456;DHT22;24237;50.106;20.014;2023-11-19T01:11:55;5.50;99.90
38456;DHT22;24237;50.106;20.014;2023-11-19T01:14:20;5.50;99.90
38456;DHT22;24237;50.106;20.014;2023-11-19T01:16:46;5.60;99.90
38456;DHT22;24237;50.106;20.014;2023-11-19T01:19:11;5.60;99.90
38456;DHT22;24237;50.106;20.014;2023-11-19T01:21:37;5.50;99.90
38456;DHT22;24237;50.106;20.014;2023-11-19T01:24:03;5.50;99.90
38456;DHT22;24237;50.106;20.014;2023-11-19T01:26:31;5.40;99.90
38456;DHT22;24237;50.106;20.014;2023-11-19T01:28:57;5.50;99.90
38456;DHT22;24237;50.106;20.014;2023-11-19T01:31:22;5.40;99.90
38456;DHT22;24237;50.106;20.014;2023-11-19T01:33:48;5.60;99.90
38456;DHT22;24237;50.106;20.014;2023-11-19T01:36:14;5.60;99.90
38456;DHT22;24237;50.106;20.014;2023-11-19T01:38:39;5.60;99.90
38456;DHT22;24237;50.106;20.014;2023-11-19T01:41:05;5.50;99.90
38456;DHT22;24237;50.106;20.014;2023-11-19T01:43:35;5.50;99.90
38456;DHT22;24237;50.106;20.014;2023-11-19T01:46:02;5.50;99.90
38456;DHT22;24237;50.106;20.014;2023-11-19T01:48:32;5.70;99.90
38456;DHT22;24237;50.106;20.014;2023-11-19T01:51:00;5.50;99.90
38456;DHT22;24237;50.106;20.014;2023-11-19T01:53:27;5.70;99.90
38456;DHT22;24237;50.106;20.014;2023-11-19T01:55:54;5.50;99.90
38456;DHT22;24237;50.106;20.014;2023-11-19T01:58:21;5.60;99.90
38456;DHT22;24237;50.106;20.014;2023-11-19T02:00:48;5.70;99.90
38456;DHT22;24237;50.106;20.014;2023-11-19T02:03:14;5.80;99.90
38456;DHT22;24237;50.106;20.014;2023-11-19T02:05:40;5.50;99.90
38456;DHT22;24237;50.106;20.014;2023-11-19T02:08:06;5.60;99.90
38456;DHT22;24237;50.106;20.014;2023-11-19T02:10:32;5.40;99.90
38456;DHT22;24237;50.106;20.014;2023-11-19T02:13:01;5.30;99.90
38456;DHT22;24237;50.106;20.014;2023-11-19T02:15:26;5.60;99.90
38456;DHT22;24237;50.106;20.014;2023-11-19T02:17:52;5.60;99.90
38456;DHT22;24237;50.106;20.014;2023-11-19T02:20:18;5.60;99.90
38456;DHT22;24237;50.106;20.014;2023-11-19T02:22:46;5.60;99.90
38456;DHT22;24237;50.106;20.014;2023-11-19T02:25:28;5.40;99.90
38456;DHT22;24237;50.106;20.014;2023-11-19T02:30:24;5.40;99.90
38456;DHT22;24237;50.106;20.014;2023-11-19T02:32:54;5.40;99.90
38456;DHT22;24237;50.106;20.014;2023-11-19T02:35:22;5.40;99.90
38456;DHT22;24237;50.106;20.014;2023-11-19T02:37:48;5.40;99.90
38456;DHT22;24237;50.106;20.014;2023-11-19T02:40:14;5.30;99.90
38456;DHT22;24237;50.106;20.014;2023-11-19T02:42:40;5.80;99.90
38456;DHT22;24237;50.106;20.014;2023-11-19T02:45:06;5.60;99.90
38456;DHT22;24237;50.106;20.014;2023-11-19T02:47:33;5.40;99.90
38456;DHT22;24237;50.106;20.014;2023-11-19T02:49:59;5.30;1.00
38456;DHT22;24237;50.106;20.014;2023-11-19T02:52:25;5.40;1.00
38456;DHT22;24237;50.106;20.014;2023-11-19T02:54:51;5.20;1.00
38456;DHT22;24237;50.106;20.014;2023-11-19T02:57:17;5.20;1.00
38456;DHT22;24237;50.106;20.014;2023-11-19T02:59:46;5.30;1.00
38456;DHT22;24237;50.106;20.014;2023-11-19T03:02:12;5.50;1.00
38456;DHT22;24237;50.106;20.014;2023-11-19T03:04:38;5.60;1.00
38456;DHT22;24237;50.106;20.014;2023-11-19T03:07:08;5.30;1.00
38456;DHT22;24237;50.106;20.014;2023-11-19T03:09:34;5.40;99.90
38456;DHT22;24237;50.106;20.014;2023-11-19T03:12:01;5.50;99.90
38456;DHT22;24237;50.106;20.014;2023-11-19T03:14:26;5.50;99.90
38456;DHT22;24237;50.106;20.014;2023-11-19T03:16:53;5.50;99.90
38456;DHT22;24237;50.106;20.014;2023-11-19T03:19:18;5.40;1.00
38456;DHT22;24237;50.106;20.014;2023-11-19T03:21:44;5.30;82.70
38456;DHT22;24237;50.106;20.014;2023-11-19T03:24:12;5.50;1.00
38456;DHT22;24237;50.106;20.014;2023-11-19T03:26:38;5.40;99.90
38456;DHT22;24237;50.106;20.014;2023-11-19T03:29:04;5.50;1.00
38456;DHT22;24237;50.106;20.014;2023-11-19T03:31:30;5.50;99.90
38456;DHT22;24237;50.106;20.014;2023-11-19T03:33:56;5.40;99.90
38456;DHT22;24237;50.106;20.014;2023-11-19T03:36:21;5.50;1.00
38456;DHT22;24237;50.106;20.014;2023-11-19T03:38:48;5.30;20.30
38456;DHT22;24237;50.106;20.014;2023-11-19T03:41:14;5.40;1.00
38456;DHT22;24237;50.106;20.014;2023-11-19T03:43:40;5.30;99.90
38456;DHT22;24237;50.106;20.014;2023-11-19T03:46:19;5.30;99.90
38456;DHT22;24237;50.106;20.014;2023-11-19T03:48:50;5.30;99.90
38456;DHT22;24237;50.106;20.014;2023-11-19T03:51:16;5.20;99.90
38456;DHT22;24237;50.106;20.014;2023-11-19T03:53:46;5.20;99.90
38456;DHT22;24237;50.106;20.014;2023-11-19T03:56:12;5.50;99.90
38456;DHT22;24237;50.106;20.014;2023-11-19T03:58:39;5.20;1.00
38456;DHT22;24237;50.106;20.014;2023-11-19T04:01:05;5.10;99.90
38456;DHT22;24237;50.106;20.014;2023-11-19T04:03:31;5.30;99.90
38456;DHT22;24237;50.106;20.014;2023-11-19T04:05:57;5.20;1.00
38456;DHT22;24237;50.106;20.014;2023-11-19T04:08:23;5.10;99.90
38456;DHT22;24237;50.106;20.014;2023-11-19T04:10:48;5.00;99.90
38456;DHT22;24237;50.106;20.014;2023-11-19T04:13:14;5.10;99.90
38456;DHT22;24237;50.106;20.014;2023-11-19T04:15:40;5.10;1.00
38456;DHT22;24237;50.106;20.014;2023-11-19T04:18:05;5.30;2.10
38456;DHT22;24237;50.106;20.014;2023-11-19T04:20:31;5.20;99.90
38456;DHT22;24237;50.106;20.014;2023-11-19T04:22:57;5.30;99.90
38456;DHT22;24237;50.106;20.014;2023-11-19T04:25:23;5.30;28.70
38456;DHT22;24237;50.106;20.014;2023-11-19T04:27:51;5.30;99.90
38456;DHT22;24237;50.106;20.014;2023-11-19T04:30:18;5.20;99.90
38456;DHT22;24237;50.106;20.014;2023-11-19T04:32:44;5.10;99.90
38456;DHT22;24237;50.106;20.014;2023-11-19T04:35:10;5.30;99.90
38456;DHT22;24237;50.106;20.014;2023-11-19T04:37:36;5.20;99.90
38456;DHT22;24237;50.106;20.014;2023-11-19T04:40:03;5.30;99.90
38456;DHT22;24237;50.106;20.014;2023-11-19T04:42:29;5.20;99.90
38456;DHT22;24237;50.106;20.014;2023-11-19T04:44:55;5.20;99.90
38456;DHT22;24237;50.106;20.014;2023-11-19T04:47:21;5.40;99.90
38456;DHT22;24237;50.106;20.014;2023-11-19T04:49:46;5.50;1.00
38456;DHT22;24237;50.106;20.014;2023-11-19T04:52:12;5.20;99.90
38456;DHT22;24237;50.106;20.014;2023-11-19T04:54:41;5.40;99.90
38456;DHT22;24237;50.106;20.014;2023-11-19T04:57:08;5.40;99.90
38456;DHT22;24237;50.106;20.014;2023-11-19T04:59:36;5.30;99.90
38456;DHT22;24237;50.106;20.014;2023-11-19T05:02:02;5.40;99.90
38456;DHT22;24237;50.106;20.014;2023-11-19T05:04:29;5.40;1.00
38456;DHT22;24237;50.106;20.014;2023-11-19T05:06:55;5.30;99.90
38456;DHT22;24237;50.106;20.014;2023-11-19T05:09:21;5.40;25.30
38456;DHT22;24237;50.106;20.014;2023-11-19T05:11:46;5.30;1.00
38456;DHT22;24237;50.106;20.014;2023-11-19T05:14:12;5.30;97.20
38456;DHT22;24237;50.106;20.014;2023-11-19T05:16:41;5.20;99.90
38456;DHT22;24237;50.106;20.014;2023-11-19T05:19:07;5.10;99.90
38456;DHT22;24237;50.106;20.014;2023-11-19T05:21:32;5.30;99.90
38456;DHT22;24237;50.106;20.014;2023-11-19T05:23:58;5.50;99.90
38456;DHT22;24237;50.106;20.014;2023-11-19T05:26:24;5.30;1.00
38456;DHT22;24237;50.106;20.014;2023-11-19T05:28:50;5.40;99.90
38456;DHT22;24237;50.106;20.014;2023-11-19T05:31:18;5.40;1.00
38456;DHT22;24237;50.106;20.014;2023-11-19T05:33:44;5.50;71.00
38456;DHT22;24237;50.106;20.014;2023-11-19T05:36:11;5.60;1.00
38456;DHT22;24237;50.106;20.014;2023-11-19T05:38:38;5.50;99.90
38456;DHT22;24237;50.106;20.014;2023-11-19T05:41:04;5.40;1.00
38456;DHT22;24237;50.106;20.014;2023-11-19T05:43:30;5.50;1.00
38456;DHT22;24237;50.106;20.014;2023-11-19T05:45:56;5.30;89.80
38456;DHT22;24237;50.106;20.014;2023-11-19T05:48:22;5.30;99.90
38456;DHT22;24237;50.106;20.014;2023-11-19T05:50:48;5.40;99.90
38456;DHT22;24237;50.106;20.014;2023-11-19T05:53:15;5.40;99.70
38456;DHT22;24237;50.106;20.014;2023-11-19T05:55:41;5.30;50.60
38456;DHT22;24237;50.106;20.014;2023-11-19T05:58:29;5.40;12.90
38456;DHT22;24237;50.106;20.014;2023-11-19T06:00:55;5.50;1.00
38456;DHT22;24237;50.106;20.014;2023-11-19T06:03:21;5.50;1.00
38456;DHT22;24237;50.106;20.014;2023-11-19T06:05:50;5.40;99.90
38456;DHT22;24237;50.106;20.014;2023-11-19T06:08:16;5.30;1.00
38456;DHT22;24237;50.106;20.014;2023-11-19T06:10:42;5.10;1.00
38456;DHT22;24237;50.106;20.014;2023-11-19T06:13:08;5.10;99.90
38456;DHT22;24237;50.106;20.014;2023-11-19T06:15:36;5.10;99.90
38456;DHT22;24237;50.106;20.014;2023-11-19T06:18:02;5.30;99.90
38456;DHT22;24237;50.106;20.014;2023-11-19T06:20:29;5.10;99.90
38456;DHT22;24237;50.106;20.014;2023-11-19T06:22:56;4.90;99.90
38456;DHT22;24237;50.106;20.014;2023-11-19T06:25:22;4.80;1.00
38456;DHT22;24237;50.106;20.014;2023-11-19T06:27:49;5.00;1.00
38456;DHT22;24237;50.106;20.014;2023-11-19T06:30:15;5.10;99.90
38456;DHT22;24237;50.106;20.014;2023-11-19T06:32:40;5.00;99.90
38456;DHT22;24237;50.106;20.014;2023-11-19T06:35:06;5.20;99.90
38456;DHT22;24237;50.106;20.014;2023-11-19T06:37:32;5.00;99.90
38456;DHT22;24237;50.106;20.014;2023-11-19T06:39:58;5.10;99.90
38456;DHT22;24237;50.106;20.014;2023-11-19T06:42:24;5.20;99.90
38456;DHT22;24237;50.106;20.014;2023-11-19T06:44:50;5.30;99.90
38456;DHT22;24237;50.106;20.014;2023-11-19T06:47:17;5.30;99.90
38456;DHT22;24237;50.106;20.014;2023-11-19T06:49:44;5.30;99.90
38456;DHT22;24237;50.106;20.014;2023-11-19T06:52:09;5.30;99.90
38456;DHT22;24237;50.106;20.014;2023-11-19T06:54:36;5.40;99.90
38456;DHT22;24237;50.106;20.014;2023-11-19T06:57:01;5.40;99.90
38456;DHT22;24237;50.106;20.014;2023-11-19T06:59:28;5.30;99.90
38456;DHT22;24237;50.106;20.014;2023-11-19T07:01:55;5.20;99.90
38456;DHT22;24237;50.106;20.014;2023-11-19T07:04:21;5.30;99.90
38456;DHT22;24237;50.106;20.014;2023-11-19T07:06:46;5.30;99.90
38456;DHT22;24237;50.106;20.014;2023-11-19T07:09:13;5.60;99.90
38456;DHT22;24237;50.106;20.014;2023-11-19T07:11:40;5.50;1.00
38456;DHT22;24237;50.106;20.014;2023-11-19T07:14:07;5.60;99.90
38456;DHT22;24237;50.106;20.014;2023-11-19T07:16:34;5.60;1.00
38456;DHT22;24237;50.106;20.014;2023-11-19T07:19:00;5.60;1.00
38456;DHT22;24237;50.106;20.014;2023-11-19T07:21:26;5.50;99.90
38456;DHT22;24237;50.106;20.014;2023-11-19T07:23:54;5.80;1.00
38456;DHT22;24237;50.106;20.014;2023-11-19T07:26:20;5.60;1.00
38456;DHT22;24237;50.106;20.014;2023-11-19T07:28:46;5.90;1.00
38456;DHT22;24237;50.106;20.014;2023-11-19T07:31:12;5.90;99.90
38456;DHT22;24237;50.106;20.014;2023-11-19T07:33:39;5.90;99.90
38456;DHT22;24237;50.106;20.014;2023-11-19T07:36:05;5.80;99.90
38456;DHT22;24237;50.106;20.014;2023-11-19T07:38:31;5.90;99.90
38456;DHT22;24237;50.106;20.014;2023-11-19T07:40:57;6.00;99.90
38456;DHT22;24237;50.106;20.014;2023-11-19T07:43:22;6.00;99.90
38456;DHT22;24237;50.106;20.014;2023-11-19T07:45:48;6.00;99.90
38456;DHT22;24237;50.106;20.014;2023-11-19T07:48:14;6.40;4.90
38456;DHT22;24237;50.106;20.014;2023-11-19T07:50:40;6.20;1.00
38456;DHT22;24237;50.106;20.014;2023-11-19T07:53:07;6.30;45.20
38456;DHT22;24237;50.106;20.014;2023-11-19T07:55:33;6.40;1.00
38456;DHT22;24237;50.106;20.014;2023-11-19T07:57:59;6.60;99.90
38456;DHT22;24237;50.106;20.014;2023-11-19T08:00:24;6.70;99.90
38456;DHT22;24237;50.106;20.014;2023-11-19T08:02:50;6.70;1.00
38456;DHT22;24237;50.106;20.014;2023-11-19T08:05:16;6.70;99.90
38456;DHT22;24237;50.106;20.014;2023-11-19T08:07:41;6.60;99.90
38456;DHT22;24237;50.106;20.014;2023-11-19T08:10:08;6.40;99.90
38456;DHT22;24237;50.106;20.014;2023-11-19T08:12:37;6.40;99.90
38456;DHT22;24237;50.106;20.014;2023-11-19T08:15:03;6.50;99.90
38456;DHT22;24237;50.106;20.014;2023-11-19T08:17:30;6.70;99.90
38456;DHT22;24237;50.106;20.014;2023-11-19T08:19:56;6.70;12.50
38456;DHT22;24237;50.106;20.014;2023-11-19T08:22:21;6.70;1.00
38456;DHT22;24237;50.106;20.014;2023-11-19T08:24:48;6.70;1.00
38456;DHT22;24237;50.106;20.014;2023-11-19T08:27:14;6.50;1.00
38456;DHT22;24237;50.106;20.014;2023-11-19T08:29:39;6.50;1.00
38456;DHT22;24237;50.106;20.014;2023-11-19T08:32:06;6.40;1.00
38456;DHT22;24237;50.106;20.014;2023-11-19T08:34:32;6.70;99.90
38456;DHT22;24237;50.106;20.014;2023-11-19T08:36:58;6.70;99.90
38456;DHT22;24237;50.106;20.014;2023-11-19T08:39:24;6.80;99.90
38456;DHT22;24237;50.106;20.014;2023-11-19T08:41:50;7.10;99.90
38456;DHT22;24237;50.106;20.014;2023-11-19T08:44:16;7.30;99.90
38456;DHT22;24237;50.106;20.014;2023-11-19T08:46:51;7.20;99.90
38456;DHT22;24237;50.106;20.014;2023-11-19T08:49:16;7.20;99.90
38456;DHT22;24237;50.106;20.014;2023-11-19T08:51:42;7.20;99.90
38456;DHT22;24237;50.106;20.014;2023-11-19T08:54:08;7.10;99.90
38456;DHT22;24237;50.106;20.014;2023-11-19T08:56:34;7.10;99.90
38456;DHT22;24237;50.106;20.014;2023-11-19T08:59:01;7.20;99.90
38456;DHT22;24237;50.106;20.014;2023-11-19T09:01:27;7.20;99.90
38456;DHT22;24237;50.106;20.014;2023-11-19T09:03:52;7.20;99.90
38456;DHT22;24237;50.106;20.014;2023-11-19T09:06:18;7.30;99.90
38456;DHT22;24237;50.106;20.014;2023-11-19T09:08:43;7.30;99.90
38456;DHT22;24237;50.106;20.014;2023-11-19T09:11:12;7.10;99.90
38456;DHT22;24237;50.106;20.014;2023-11-19T09:13:38;7.10;99.90
38456;DHT22;24237;50.106;20.014;2023-11-19T09:16:03;7.20;99.90
38456;DHT22;24237;50.106;20.014;2023-11-19T09:18:30;6.80;99.90
38456;DHT22;24237;50.106;20.014;2023-11-19T09:20:56;6.70;99.90
38456;DHT22;24237;50.106;20.014;2023-11-19T09:23:21;6.50;99.90
38456;DHT22;24237;50.106;20.014;2023-11-19T09:25:47;6.80;99.90
38456;DHT22;24237;50.106;20.014;2023-11-19T09:28:12;7.10;99.90
38456;DHT22;24237;50.106;20.014;2023-11-19T09:30:40;7.40;99.90
38456;DHT22;24237;50.106;20.014;2023-11-19T09:33:05;7.30;99.90
38456;DHT22;24237;50.106;20.014;2023-11-19T09:35:31;7.40;99.90
38456;DHT22;24237;50.106;20.014;2023-11-19T09:37:58;7.30;99.20
38456;DHT22;24237;50.106;20.014;2023-11-19T09:40:24;7.40;99.90
38456;DHT22;24237;50.106;20.014;2023-11-19T09:42:51;7.40;99.90
38456;DHT22;24237;50.106;20.014;2023-11-19T09:45:17;7.50;93.60
38456;DHT22;24237;50.106;20.014;2023-11-19T09:47:46;7.20;85.10
38456;DHT22;24237;50.106;20.014;2023-11-19T09:50:21;7.20;99.90
38456;DHT22;24237;50.106;20.014;2023-11-19T09:52:47;7.10;99.90
38456;DHT22;24237;50.106;20.014;2023-11-19T09:55:13;7.10;98.20
38456;DHT22;24237;50.106;20.014;2023-11-19T09:57:40;7.00;99.90
38456;DHT22;24237;50.106;20.014;2023-11-19T10:00:08;7.30;87.10
38456;DHT22;24237;50.106;20.014;2023-11-19T10:02:37;7.20;83.70
38456;DHT22;24237;50.106;20.014;2023-11-19T10:05:09;7.50;99.90
38456;DHT22;24237;50.106;20.014;2023-11-19T10:07:35;7.50;76.20
38456;DHT22;24237;50.106;20.014;2023-11-19T10:10:02;7.50;24.60
38456;DHT22;24237;50.106;20.014;2023-11-19T10:12:29;7.50;28.20
38456;DHT22;24237;50.106;20.014;2023-11-19T10:14:59;7.70;17.00
38456;DHT22;24237;50.106;20.014;2023-11-19T10:17:28;7.60;19.90
38456;DHT22;24237;50.106;20.014;2023-11-19T10:19:57;7.60;16.20
38456;DHT22;24237;50.106;20.014;2023-11-19T10:22:23;7.70;6.60
38456;DHT22;24237;50.106;20.014;2023-11-19T10:24:50;7.90;1.00
38456;DHT22;24237;50.106;20.014;2023-11-19T10:27:16;8.10;1.00
38456;DHT22;24237;50.106;20.014;2023-11-19T10:29:45;8.20;71.90
38456;DHT22;24237;50.106;20.014;2023-11-19T10:32:12;8.20;53.40
38456;DHT22;24237;50.106;20.014;2023-11-19T10:34:38;8.40;1.00
38456;DHT22;24237;50.106;20.014;2023-11-19T10:37:05;8.50;1.00
38456;DHT22;24237;50.106;20.014;2023-11-19T10:39:53;8.30;1.00
38456;DHT22;24237;50.106;20.014;2023-11-19T10:42:22;8.30;1.00
38456;DHT22;24237;50.106;20.014;2023-11-19T10:44:48;8.40;1.00
38456;DHT22;24237;50.106;20.014;2023-11-19T10:47:14;8.30;1.00
38456;DHT22;24237;50.106;20.014;2023-11-19T10:49:43;8.40;1.00
38456;DHT22;24237;50.106;20.014;2023-11-19T10:52:09;8.40;1.00
38456;DHT22;24237;50.106;20.014;2023-11-19T10:54:35;8.50;1.00
38456;DHT22;24237;50.106;20.014;2023-11-19T10:57:02;8.50;1.00
38456;DHT22;24237;50.106;20.014;2023-11-19T10:59:30;8.30;1.00
38456;DHT22;24237;50.106;20.014;2023-11-19T11:01:56;8.20;1.00
38456;DHT22;24237;50.106;20.014;2023-11-19T11:04:24;8.20;1.00
38456;DHT22;24237;50.106;20.014;2023-11-19T11:06:54;8.30;1.00
38456;DHT22;24237;50.106;20.014;2023-11-19T11:09:26;8.30;1.00
38456;DHT22;24237;50.106;20.014;2023-11-19T11:11:52;8.30;1.00
38456;DHT22;24237;50.106;20.014;2023-11-19T11:14:20;8.50;1.00
38456;DHT22;24237;50.106;20.014;2023-11-19T11:16:48;8.40;1.00
38456;DHT22;24237;50.106;20.014;2023-11-19T11:19:16;8.30;1.00
38456;DHT22;24237;50.106;20.014;2023-11-19T11:21:45;8.10;1.00
38456;DHT22;24237;50.106;20.014;2023-11-19T11:24:24;8.20;1.00
38456;DHT22;24237;50.106;20.014;2023-11-19T11:32:45;8.50;1.00
38456;DHT22;24237;50.106;20.014;2023-11-19T11:35:47;8.50;1.00
38456;DHT22;24237;50.106;20.014;2023-11-19T11:38:08;8.70;99.90
38456;DHT22;24237;50.106;20.014;2023-11-19T11:40:35;8.60;99.90
38456;DHT22;24237;50.106;20.014;2023-11-19T11:43:02;8.70;99.90
38456;DHT22;24237;50.106;20.014;2023-11-19T11:45:40;8.60;99.90
38456;DHT22;24237;50.106;20.014;2023-11-19T11:48:11;8.60;99.90
38456;DHT22;24237;50.106;20.014;2023-11-19T11:50:48;8.40;99.90
38456;DHT22;24237;50.106;20.014;2023-11-19T11:53:19;8.10;1.00
38456;DHT22;24237;50.106;20.014;2023-11-19T11:58:17;7.80;1.00
38456;DHT22;24237;50.106;20.014;2023-11-19T12:00:42;7.90;1.00
38456;DHT22;24237;50.106;20.014;2023-11-19T12:03:09;7.80;1.00
38456;DHT22;24237;50.106;20.014;2023-11-19T12:05:44;8.00;1.00
38456;DHT22;24237;50.106;20.014;2023-11-19T12:08:14;8.30;1.00
38456;DHT22;24237;50.106;20.014;2023-11-19T12:10:51;8.30;1.00
38456;DHT22;24237;50.106;20.014;2023-11-19T12:13:19;8.30;1.00
38456;DHT22;24237;50.106;20.014;2023-11-19T12:18:26;8.00;27.60
38456;DHT22;24237;50.106;20.014;2023-11-19T12:20:52;8.00;69.80
38456;DHT22;24237;50.106;20.014;2023-11-19T12:23:18;7.90;99.90
38456;DHT22;24237;50.106;20.014;2023-11-19T12:25:46;7.80;99.90
38456;DHT22;24237;50.106;20.014;2023-11-19T12:28:13;7.70;99.90
38456;DHT22;24237;50.106;20.014;2023-11-19T12:30:39;7.60;99.90
38456;DHT22;24237;50.106;20.014;2023-11-19T12:33:11;7.50;99.90
38456;DHT22;24237;50.106;20.014;2023-11-19T12:35:44;7.30;1.00
38456;DHT22;24237;50.106;20.014;2023-11-19T12:38:20;7.30;1.00
38456;DHT22;24237;50.106;20.014;2023-11-19T12:41:08;7.20;99.90
38456;DHT22;24237;50.106;20.014;2023-11-19T12:43:36;7.10;99.90
38456;DHT22;24237;50.106;20.014;2023-11-19T12:48:46;6.90;99.90
38456;DHT22;24237;50.106;20.014;2023-11-19T12:51:12;6.90;99.90
38456;DHT22;24237;50.106;20.014;2023-11-19T12:54:07;6.70;99.90
38456;DHT22;24237;50.106;20.014;2023-11-19T12:56:33;6.80;99.90
38456;DHT22;24237;50.106;20.014;2023-11-19T12:59:10;6.90;1.00
38456;DHT22;24237;50.106;20.014;2023-11-19T13:01:37;6.90;10.20
38456;DHT22;24237;50.106;20.014;2023-11-19T13:04:27;7.30;99.90
38456;DHT22;24237;50.106;20.014;2023-11-19T13:06:50;7.30;1.00
38456;DHT22;24237;50.106;20.014;2023-11-19T13:09:27;7.30;1.00
38456;DHT22;24237;50.106;20.014;2023-11-19T13:11:54;7.40;99.90
38456;DHT22;24237;50.106;20.014;2023-11-19T13:14:20;7.30;1.00
38456;DHT22;24237;50.106;20.014;2023-11-19T13:16:46;7.10;1.00
38456;DHT22;24237;50.106;20.014;2023-11-19T13:19:14;7.30;50.00
38456;DHT22;24237;50.106;20.014;2023-11-19T13:21:41;7.00;99.90
38456;DHT22;24237;50.106;20.014;2023-11-19T13:24:07;7.30;99.90
38456;DHT22;24237;50.106;20.014;2023-11-19T13:26:33;7.20;1.00
38456;DHT22;24237;50.106;20.014;2023-11-19T13:28:58;7.20;99.90
38456;DHT22;24237;50.106;20.014;2023-11-19T13:31:24;7.10;99.90
38456;DHT22;24237;50.106;20.014;2023-11-19T13:33:50;7.10;1.00
38456;DHT22;24237;50.106;20.014;2023-11-19T13:36:16;7.10;1.00
38456;DHT22;24237;50.106;20.014;2023-11-19T13:38:42;6.90;99.90
38456;DHT22;24237;50.106;20.014;2023-11-19T13:41:09;6.80;99.90
38456;DHT22;24237;50.106;20.014;2023-11-19T13:43:36;6.90;1.00
38456;DHT22;24237;50.106;20.014;2023-11-19T13:46:05;6.90;99.90
38456;DHT22;24237;50.106;20.014;2023-11-19T13:48:30;6.90;86.40
38456;DHT22;24237;50.106;20.014;2023-11-19T13:50:56;7.40;99.90
38456;DHT22;24237;50.106;20.014;2023-11-19T13:53:22;7.30;99.90
38456;DHT22;24237;50.106;20.014;2023-11-19T13:55:48;7.10;99.90
38456;DHT22;24237;50.106;20.014;2023-11-19T13:58:13;7.00;1.00
38456;DHT22;24237;50.106;20.014;2023-11-19T14:00:39;7.00;43.90
38456;DHT22;24237;50.106;20.014;2023-11-19T14:03:07;7.00;1.00
38456;DHT22;24237;50.106;20.014;2023-11-19T14:05:32;7.00;1.00
38456;DHT22;24237;50.106;20.014;2023-11-19T14:07:58;7.00;99.90
38456;DHT22;24237;50.106;20.014;2023-11-19T14:10:23;7.20;1.00
38456;DHT22;24237;50.106;20.014;2023-11-19T14:12:49;7.20;99.90
38456;DHT22;24237;50.106;20.014;2023-11-19T14:15:17;7.20;1.00
38456;DHT22;24237;50.106;20.014;2023-11-19T14:17:43;7.00;50.00
38456;DHT22;24237;50.106;20.014;2023-11-19T14:20:09;7.10;1.00
38456;DHT22;24237;50.106;20.014;2023-11-19T14:22:43;7.10;1.00
38456;DHT22;24237;50.106;20.014;2023-11-19T14:25:09;7.10;14.10
38456;DHT22;24237;50.106;20.014;2023-11-19T14:27:38;7.00;99.90
38456;DHT22;24237;50.106;20.014;2023-11-19T14:30:07;6.90;99.90
38456;DHT22;24237;50.106;20.014;2023-11-19T14:32:35;6.70;99.90
38456;DHT22;24237;50.106;20.014;2023-11-19T14:35:00;6.70;99.90
38456;DHT22;24237;50.106;20.014;2023-11-19T14:37:26;6.90;99.90
38456;DHT22;24237;50.106;20.014;2023-11-19T14:39:51;6.90;99.90
38456;DHT22;24237;50.106;20.014;2023-11-19T14:42:17;6.80;99.90
38456;DHT22;24237;50.106;20.014;2023-11-19T14:44:43;6.80;99.90
38456;DHT22;24237;50.106;20.014;2023-11-19T14:47:08;6.80;99.90
38456;DHT22;24237;50.106;20.014;2023-11-19T14:49:34;6.70;99.90
38456;DHT22;24237;50.106;20.014;2023-11-19T14:52:00;6.80;1.00
38456;DHT22;24237;50.106;20.014;2023-11-19T14:54:26;6.60;1.00
38456;DHT22;24237;50.106;20.014;2023-11-19T14:56:51;6.60;99.90
38456;DHT22;24237;50.106;20.014;2023-11-19T14:59:17;6.40;1.80
38456;DHT22;24237;50.106;20.014;2023-11-19T15:01:46;6.40;99.90
38456;DHT22;24237;50.106;20.014;2023-11-19T15:04:12;6.60;99.90
38456;DHT22;24237;50.106;20.014;2023-11-19T15:06:37;6.60;99.90
38456;DHT22;24237;50.106;20.014;2023-11-19T15:09:03;6.80;99.90
38456;DHT22;24237;50.106;20.014;2023-11-19T15:11:29;6.90;97.00
38456;DHT22;24237;50.106;20.014;2023-11-19T15:13:55;6.70;1.00
38456;DHT22;24237;50.106;20.014;2023-11-19T15:16:21;6.80;1.00
38456;DHT22;24237;50.106;20.014;2023-11-19T15:18:56;6.70;99.90
38456;DHT22;24237;50.106;20.014;2023-11-19T15:21:25;6.90;1.00
38456;DHT22;24237;50.106;20.014;2023-11-19T15:23:50;6.80;54.40
38456;DHT22;24237;50.106;20.014;2023-11-19T15:26:17;6.70;11.40
38456;DHT22;24237;50.106;20.014;2023-11-19T15:28:43;6.80;32.10
38456;DHT22;24237;50.106;20.014;2023-11-19T15:31:08;6.70;99.90
38456;DHT22;24237;50.106;20.014;2023-11-19T15:33:35;6.60;99.90
38456;DHT22;24237;50.106;20.014;2023-11-19T15:36:00;6.60;99.90
38456;DHT22;24237;50.106;20.014;2023-11-19T15:38:28;6.70;99.90
38456;DHT22;24237;50.106;20.014;2023-11-19T15:40:54;6.60;1.00
38456;DHT22;24237;50.106;20.014;2023-11-19T15:43:20;6.60;1.00
38456;DHT22;24237;50.106;20.014;2023-11-19T15:45:46;6.50;1.00
38456;DHT22;24237;50.106;20.014;2023-11-19T15:48:11;6.60;1.00
38456;DHT22;24237;50.106;20.014;2023-11-19T15:50:39;6.50;1.00